sensor_id;sensor_type;location;lat;lon;timestamp;temperature;humidity
58447;DHT22;44240;51.840;7.258;2022-08-21T00:02:01;19.10;93.90
58447;DHT22;44240;51.840;7.258;2022-08-21T00:04:26;19.10;94.00
58447;DHT22;44240;51.840;7.258;2022-08-21T00:06:52;19.10;94.10
58447;DHT22;44240;51.840;7.258;2022-08-21T00:09:19;19.10;94.20
58447;DHT22;44240;51.840;7.258;2022-08-21T00:11:45;19.00;94.30
58447;DHT22;44240;51.840;7.258;2022-08-21T00:14:13;19.10;94.30
58447;DHT22;44240;51.840;7.258;2022-08-21T00:16:40;19.10;94.40
58447;DHT22;44240;51.840;7.258;2022-08-21T00:19:06;19.00;94.50
58447;DHT22;44240;51.840;7.258;2022-08-21T00:21:33;19.00;94.50
58447;DHT22;44240;51.840;7.258;2022-08-21T00:23:59;19.00;94.60
58447;DHT22;44240;51.840;7.258;2022-08-21T00:26:25;18.90;94.70
58447;DHT22;44240;51.840;7.258;2022-08-21T00:28:52;18.90;94.80
58447;DHT22;44240;51.840;7.258;2022-08-21T00:31:18;18.90;95.20
58447;DHT22;44240;51.840;7.258;2022-08-21T00:33:45;18.90;95.00
58447;DHT22;44240;51.840;7.258;2022-08-21T00:36:11;18.80;95.10
58447;DHT22;44240;51.840;7.258;2022-08-21T00:38:36;18.80;95.20
58447;DHT22;44240;51.840;7.258;2022-08-21T00:41:04;18.80;95.30
58447;DHT22;44240;51.840;7.258;2022-08-21T00:43:33;18.80;95.40
58447;DHT22;44240;51.840;7.258;2022-08-21T00:46:00;18.70;95.50
58447;DHT22;44240;51.840;7.258;2022-08-21T00:48:26;18.70;95.50
58447;DHT22;44240;51.840;7.258;2022-08-21T00:51:00;18.60;95.50
58447;DHT22;44240;51.840;7.258;2022-08-21T00:53:27;18.60;95.60
58447;DHT22;44240;51.840;7.258;2022-08-21T00:55:55;18.50;95.50
58447;DHT22;44240;51.840;7.258;2022-08-21T00:58:21;18.40;95.70
58447;DHT22;44240;51.840;7.258;2022-08-21T01:00:49;18.40;95.80
58447;DHT22;44240;51.840;7.258;2022-08-21T01:03:20;18.40;95.80
58447;DHT22;44240;51.840;7.258;2022-08-21T01:05:46;18.40;95.90
58447;DHT22;44240;51.840;7.258;2022-08-21T01:08:13;18.40;95.90
58447;DHT22;44240;51.840;7.258;2022-08-21T01:10:40;18.30;95.90
58447;DHT22;44240;51.840;7.258;2022-08-21T01:13:08;18.30;96.00
58447;DHT22;44240;51.840;7.258;2022-08-21T01:15:39;18.30;96.10
58447;DHT22;44240;51.840;7.258;2022-08-21T01:18:07;18.30;96.20
58447;DHT22;44240;51.840;7.258;2022-08-21T01:20:35;18.20;96.20
58447;DHT22;44240;51.840;7.258;2022-08-21T01:23:02;18.20;96.30
58447;DHT22;44240;51.840;7.258;2022-08-21T01:25:28;18.20;96.40
58447;DHT22;44240;51.840;7.258;2022-08-21T01:27:54;18.10;96.40
58447;DHT22;44240;51.840;7.258;2022-08-21T01:30:23;18.10;96.50
58447;DHT22;44240;51.840;7.258;2022-08-21T01:32:50;18.10;96.60
58447;DHT22;44240;51.840;7.258;2022-08-21T01:35:18;18.10;96.70
58447;DHT22;44240;51.840;7.258;2022-08-21T01:37:44;18.00;96.70
58447;DHT22;44240;51.840;7.258;2022-08-21T01:40:11;18.00;96.70
58447;DHT22;44240;51.840;7.258;2022-08-21T01:42:37;18.00;96.80
58447;DHT22;44240;51.840;7.258;2022-08-21T01:45:04;17.90;96.90
58447;DHT22;44240;51.840;7.258;2022-08-21T01:47:31;17.90;97.00
58447;DHT22;44240;51.840;7.258;2022-08-21T01:49:56;17.90;97.00
58447;DHT22;44240;51.840;7.258;2022-08-21T01:52:22;17.90;97.10
58447;DHT22;44240;51.840;7.258;2022-08-21T01:54:48;17.90;97.20
58447;DHT22;44240;51.840;7.258;2022-08-21T01:57:14;17.80;97.20
58447;DHT22;44240;51.840;7.258;2022-08-21T01:59:40;17.80;97.30
58447;DHT22;44240;51.840;7.258;2022-08-21T02:02:06;17.80;97.40
58447;DHT22;44240;51.840;7.258;2022-08-21T02:04:32;17.70;97.40
58447;DHT22;44240;51.840;7.258;2022-08-21T02:06:59;17.70;97.50
58447;DHT22;44240;51.840;7.258;2022-08-21T02:09:24;17.70;97.60
58447;DHT22;44240;51.840;7.258;2022-08-21T02:11:50;17.70;97.60
58447;DHT22;44240;51.840;7.258;2022-08-21T02:14:16;17.70;97.60
58447;DHT22;44240;51.840;7.258;2022-08-21T02:16:44;17.70;97.70
58447;DHT22;44240;51.840;7.258;2022-08-21T02:19:12;17.70;97.80
58447;DHT22;44240;51.840;7.258;2022-08-21T02:21:37;17.60;97.90
58447;DHT22;44240;51.840;7.258;2022-08-21T02:24:03;17.60;98.00
58447;DHT22;44240;51.840;7.258;2022-08-21T02:26:29;17.60;98.00
58447;DHT22;44240;51.840;7.258;2022-08-21T02:28:54;17.60;98.10
58447;DHT22;44240;51.840;7.258;2022-08-21T02:31:20;17.60;98.20
58447;DHT22;44240;51.840;7.258;2022-08-21T02:33:45;17.60;98.30
58447;DHT22;44240;51.840;7.258;2022-08-21T02:36:12;17.50;98.30
58447;DHT22;44240;51.840;7.258;2022-08-21T02:38:40;17.50;98.40
58447;DHT22;44240;51.840;7.258;2022-08-21T02:41:08;17.50;98.50
58447;DHT22;44240;51.840;7.258;2022-08-21T02:43:34;17.50;98.60
58447;DHT22;44240;51.840;7.258;2022-08-21T02:46:01;17.50;98.60
58447;DHT22;44240;51.840;7.258;2022-08-21T02:48:30;17.50;98.60
58447;DHT22;44240;51.840;7.258;2022-08-21T02:51:19;17.40;98.60
58447;DHT22;44240;51.840;7.258;2022-08-21T02:53:46;17.40;98.70
58447;DHT22;44240;51.840;7.258;2022-08-21T02:56:15;17.40;98.80
58447;DHT22;44240;51.840;7.258;2022-08-21T02:58:47;17.40;98.80
58447;DHT22;44240;51.840;7.258;2022-08-21T03:01:14;17.40;98.90
58447;DHT22;44240;51.840;7.258;2022-08-21T03:03:43;17.30;98.90
58447;DHT22;44240;51.840;7.258;2022-08-21T03:06:10;17.40;99.00
58447;DHT22;44240;51.840;7.258;2022-08-21T03:08:36;17.40;99.10
58447;DHT22;44240;51.840;7.258;2022-08-21T03:11:03;17.30;99.10
58447;DHT22;44240;51.840;7.258;2022-08-21T03:13:29;17.40;99.20
58447;DHT22;44240;51.840;7.258;2022-08-21T03:15:55;17.40;99.20
58447;DHT22;44240;51.840;7.258;2022-08-21T03:18:21;17.40;99.30
58447;DHT22;44240;51.840;7.258;2022-08-21T03:20:47;17.30;99.30
58447;DHT22;44240;51.840;7.258;2022-08-21T03:23:14;17.40;99.40
58447;DHT22;44240;51.840;7.258;2022-08-21T03:25:41;17.30;99.40
58447;DHT22;44240;51.840;7.258;2022-08-21T03:28:09;17.30;99.50
58447;DHT22;44240;51.840;7.258;2022-08-21T03:30:35;17.30;99.50
58447;DHT22;44240;51.840;7.258;2022-08-21T03:33:02;17.30;99.60
58447;DHT22;44240;51.840;7.258;2022-08-21T03:35:28;17.30;99.60
58447;DHT22;44240;51.840;7.258;2022-08-21T03:37:54;17.30;99.60
58447;DHT22;44240;51.840;7.258;2022-08-21T03:40:21;17.20;99.60
58447;DHT22;44240;51.840;7.258;2022-08-21T03:42:47;17.20;99.70
58447;DHT22;44240;51.840;7.258;2022-08-21T03:45:14;17.20;99.70
58447;DHT22;44240;51.840;7.258;2022-08-21T03:47:54;17.20;99.80
58447;DHT22;44240;51.840;7.258;2022-08-21T03:50:21;17.20;99.90
58447;DHT22;44240;51.840;7.258;2022-08-21T03:52:47;17.20;99.90
58447;DHT22;44240;51.840;7.258;2022-08-21T03:55:13;17.20;99.90
58447;DHT22;44240;51.840;7.258;2022-08-21T03:57:39;17.10;99.90
58447;DHT22;44240;51.840;7.258;2022-08-21T04:00:05;17.20;99.90
58447;DHT22;44240;51.840;7.258;2022-08-21T04:02:33;17.20;99.90
58447;DHT22;44240;51.840;7.258;2022-08-21T04:04:59;17.10;99.90
58447;DHT22;44240;51.840;7.258;2022-08-21T04:07:25;17.20;99.90
58447;DHT22;44240;51.840;7.258;2022-08-21T04:09:50;17.10;99.90
58447;DHT22;44240;51.840;7.258;2022-08-21T04:12:16;17.10;99.90
58447;DHT22;44240;51.840;7.258;2022-08-21T04:14:41;17.10;99.90
58447;DHT22;44240;51.840;7.258;2022-08-21T04:17:07;17.10;99.90
58447;DHT22;44240;51.840;7.258;2022-08-21T04:19:32;17.10;99.90
58447;DHT22;44240;51.840;7.258;2022-08-21T04:21:58;17.00;99.90
58447;DHT22;44240;51.840;7.258;2022-08-21T04:24:23;17.00;99.90
58447;DHT22;44240;51.840;7.258;2022-08-21T04:26:49;17.00;99.90
58447;DHT22;44240;51.840;7.258;2022-08-21T04:29:15;17.00;99.90
58447;DHT22;44240;51.840;7.258;2022-08-21T04:31:40;17.00;99.90
58447;DHT22;44240;51.840;7.258;2022-08-21T04:34:08;17.00;99.90
58447;DHT22;44240;51.840;7.258;2022-08-21T04:36:34;16.90;99.90
58447;DHT22;44240;51.840;7.258;2022-08-21T04:39:00;16.90;99.90
58447;DHT22;44240;51.840;7.258;2022-08-21T04:41:25;16.90;99.90
58447;DHT22;44240;51.840;7.258;2022-08-21T04:43:51;16.90;99.90
58447;DHT22;44240;51.840;7.258;2022-08-21T04:46:17;16.90;99.90
58447;DHT22;44240;51.840;7.258;2022-08-21T04:48:44;16.90;99.90
58447;DHT22;44240;51.840;7.258;2022-08-21T04:51:22;16.90;99.90
58447;DHT22;44240;51.840;7.258;2022-08-21T04:53:53;16.90;99.90
58447;DHT22;44240;51.840;7.258;2022-08-21T04:56:23;16.90;99.90
58447;DHT22;44240;51.840;7.258;2022-08-21T04:58:52;16.90;99.90
58447;DHT22;44240;51.840;7.258;2022-08-21T05:01:23;16.90;99.90
58447;DHT22;44240;51.840;7.258;2022-08-21T05:03:52;16.90;99.90
58447;DHT22;44240;51.840;7.258;2022-08-21T05:06:19;16.90;99.90
58447;DHT22;44240;51.840;7.258;2022-08-21T05:08:47;16.90;99.90
58447;DHT22;44240;51.840;7.258;2022-08-21T05:11:14;16.90;99.90
58447;DHT22;44240;51.840;7.258;2022-08-21T05:13:39;17.00;99.90
58447;DHT22;44240;51.840;7.258;2022-08-21T05:16:06;17.00;99.90
58447;DHT22;44240;51.840;7.258;2022-08-21T05:18:32;17.00;99.90
58447;DHT22;44240;51.840;7.258;2022-08-21T05:20:58;17.00;99.90
58447;DHT22;44240;51.840;7.258;2022-08-21T05:23:23;17.00;99.90
58447;DHT22;44240;51.840;7.258;2022-08-21T05:25:50;17.00;99.90
58447;DHT22;44240;51.840;7.258;2022-08-21T05:28:16;17.10;99.90
58447;DHT22;44240;51.840;7.258;2022-08-21T05:30:43;17.10;99.90
58447;DHT22;44240;51.840;7.258;2022-08-21T05:33:09;17.10;99.90
58447;DHT22;44240;51.840;7.258;2022-08-21T05:35:36;17.10;99.90
58447;DHT22;44240;51.840;7.258;2022-08-21T05:38:02;17.20;99.90
58447;DHT22;44240;51.840;7.258;2022-08-21T05:40:28;17.30;99.90
58447;DHT22;44240;51.840;7.258;2022-08-21T05:42:54;17.30;99.90
58447;DHT22;44240;51.840;7.258;2022-08-21T05:45:21;17.30;99.90
58447;DHT22;44240;51.840;7.258;2022-08-21T05:47:47;17.40;99.90
58447;DHT22;44240;51.840;7.258;2022-08-21T05:50:13;17.40;99.90
58447;DHT22;44240;51.840;7.258;2022-08-21T05:52:38;17.50;99.90
58447;DHT22;44240;51.840;7.258;2022-08-21T05:55:04;17.50;99.90
58447;DHT22;44240;51.840;7.258;2022-08-21T05:57:30;17.50;99.90
58447;DHT22;44240;51.840;7.258;2022-08-21T05:59:56;17.60;99.90
58447;DHT22;44240;51.840;7.258;2022-08-21T06:02:21;17.60;99.90
58447;DHT22;44240;51.840;7.258;2022-08-21T06:04:53;17.70;99.90
58447;DHT22;44240;51.840;7.258;2022-08-21T06:07:21;17.70;99.90
58447;DHT22;44240;51.840;7.258;2022-08-21T06:09:46;17.70;99.90
58447;DHT22;44240;51.840;7.258;2022-08-21T06:12:12;17.70;99.90
58447;DHT22;44240;51.840;7.258;2022-08-21T06:14:40;17.70;99.90
58447;DHT22;44240;51.840;7.258;2022-08-21T06:17:07;17.80;99.90
58447;DHT22;44240;51.840;7.258;2022-08-21T06:19:34;17.80;99.90
58447;DHT22;44240;51.840;7.258;2022-08-21T06:21:59;17.90;99.90
58447;DHT22;44240;51.840;7.258;2022-08-21T06:24:25;17.90;99.90
58447;DHT22;44240;51.840;7.258;2022-08-21T06:26:51;18.00;99.90
58447;DHT22;44240;51.840;7.258;2022-08-21T06:29:18;18.10;99.90
58447;DHT22;44240;51.840;7.258;2022-08-21T06:31:45;18.20;99.90
58447;DHT22;44240;51.840;7.258;2022-08-21T06:34:11;18.20;99.90
58447;DHT22;44240;51.840;7.258;2022-08-21T06:36:37;18.30;99.90
58447;DHT22;44240;51.840;7.258;2022-08-21T06:39:03;18.40;99.90
58447;DHT22;44240;51.840;7.258;2022-08-21T06:41:28;18.50;99.90
58447;DHT22;44240;51.840;7.258;2022-08-21T06:43:55;18.60;99.90
58447;DHT22;44240;51.840;7.258;2022-08-21T06:46:21;18.70;99.90
58447;DHT22;44240;51.840;7.258;2022-08-21T06:48:47;18.80;99.90
58447;DHT22;44240;51.840;7.258;2022-08-21T06:51:12;18.90;99.90
58447;DHT22;44240;51.840;7.258;2022-08-21T06:53:38;19.00;99.90
58447;DHT22;44240;51.840;7.258;2022-08-21T06:56:03;19.20;99.90
58447;DHT22;44240;51.840;7.258;2022-08-21T06:58:29;19.20;99.90
58447;DHT22;44240;51.840;7.258;2022-08-21T07:00:56;19.40;99.90
58447;DHT22;44240;51.840;7.258;2022-08-21T07:03:24;19.40;99.90
58447;DHT22;44240;51.840;7.258;2022-08-21T07:05:51;19.60;99.90
58447;DHT22;44240;51.840;7.258;2022-08-21T07:08:17;19.70;99.80
58447;DHT22;44240;51.840;7.258;2022-08-21T07:10:43;19.80;99.70
58447;DHT22;44240;51.840;7.258;2022-08-21T07:13:09;19.90;99.40
58447;DHT22;44240;51.840;7.258;2022-08-21T07:15:34;19.90;99.30
58447;DHT22;44240;51.840;7.258;2022-08-21T07:18:00;20.10;99.20
58447;DHT22;44240;51.840;7.258;2022-08-21T07:20:27;20.20;99.00
58447;DHT22;44240;51.840;7.258;2022-08-21T07:22:53;20.30;98.70
58447;DHT22;44240;51.840;7.258;2022-08-21T07:25:19;20.40;98.40
58447;DHT22;44240;51.840;7.258;2022-08-21T07:27:44;20.50;98.30
58447;DHT22;44240;51.840;7.258;2022-08-21T07:30:10;20.70;98.20
58447;DHT22;44240;51.840;7.258;2022-08-21T07:32:36;20.80;98.00
58447;DHT22;44240;51.840;7.258;2022-08-21T07:35:02;20.90;97.60
58447;DHT22;44240;51.840;7.258;2022-08-21T07:37:27;21.00;97.50
58447;DHT22;44240;51.840;7.258;2022-08-21T07:39:53;21.00;97.10
58447;DHT22;44240;51.840;7.258;2022-08-21T07:42:18;21.10;97.20
58447;DHT22;44240;51.840;7.258;2022-08-21T07:44:44;21.30;97.00
58447;DHT22;44240;51.840;7.258;2022-08-21T07:47:09;21.40;96.50
58447;DHT22;44240;51.840;7.258;2022-08-21T07:49:35;21.50;95.80
58447;DHT22;44240;51.840;7.258;2022-08-21T07:52:01;21.60;95.70
58447;DHT22;44240;51.840;7.258;2022-08-21T07:54:26;21.70;95.40
58447;DHT22;44240;51.840;7.258;2022-08-21T07:56:52;21.80;95.30
58447;DHT22;44240;51.840;7.258;2022-08-21T07:59:18;21.90;94.90
58447;DHT22;44240;51.840;7.258;2022-08-21T08:01:43;22.00;93.50
58447;DHT22;44240;51.840;7.258;2022-08-21T08:04:09;22.00;93.50
58447;DHT22;44240;51.840;7.258;2022-08-21T08:06:34;22.00;93.10
58447;DHT22;44240;51.840;7.258;2022-08-21T08:09:00;22.10;92.50
58447;DHT22;44240;51.840;7.258;2022-08-21T08:11:28;22.20;92.50
58447;DHT22;44240;51.840;7.258;2022-08-21T08:13:53;22.20;91.20
58447;DHT22;44240;51.840;7.258;2022-08-21T08:16:19;22.30;91.30
58447;DHT22;44240;51.840;7.258;2022-08-21T08:18:44;22.30;91.40
58447;DHT22;44240;51.840;7.258;2022-08-21T08:21:11;22.50;90.90
58447;DHT22;44240;51.840;7.258;2022-08-21T08:23:38;22.50;90.00
58447;DHT22;44240;51.840;7.258;2022-08-21T08:26:04;22.50;90.30
58447;DHT22;44240;51.840;7.258;2022-08-21T08:28:31;22.60;90.50
58447;DHT22;44240;51.840;7.258;2022-08-21T08:30:59;22.70;90.30
58447;DHT22;44240;51.840;7.258;2022-08-21T08:33:24;22.90;90.30
58447;DHT22;44240;51.840;7.258;2022-08-21T08:35:51;22.90;89.40
58447;DHT22;44240;51.840;7.258;2022-08-21T08:38:18;23.10;89.60
58447;DHT22;44240;51.840;7.258;2022-08-21T08:41:02;23.20;89.80
58447;DHT22;44240;51.840;7.258;2022-08-21T08:43:30;23.20;88.10
58447;DHT22;44240;51.840;7.258;2022-08-21T08:45:58;23.20;88.60
58447;DHT22;44240;51.840;7.258;2022-08-21T08:51:40;23.40;87.40
58447;DHT22;44240;51.840;7.258;2022-08-21T08:54:11;23.50;87.30
58447;DHT22;44240;51.840;7.258;2022-08-21T08:56:38;23.50;86.90
58447;DHT22;44240;51.840;7.258;2022-08-21T08:59:15;23.40;86.90
58447;DHT22;44240;51.840;7.258;2022-08-21T09:01:40;23.40;87.20
58447;DHT22;44240;51.840;7.258;2022-08-21T09:04:07;23.60;88.10
58447;DHT22;44240;51.840;7.258;2022-08-21T09:09:30;23.90;86.10
58447;DHT22;44240;51.840;7.258;2022-08-21T09:12:06;23.90;84.50
58447;DHT22;44240;51.840;7.258;2022-08-21T09:22:37;23.70;83.50
58447;DHT22;44240;51.840;7.258;2022-08-21T09:25:30;23.70;84.00
58447;DHT22;44240;51.840;7.258;2022-08-21T09:27:58;23.80;84.10
58447;DHT22;44240;51.840;7.258;2022-08-21T09:30:27;23.80;83.20
58447;DHT22;44240;51.840;7.258;2022-08-21T09:32:54;24.00;83.60
58447;DHT22;44240;51.840;7.258;2022-08-21T09:35:21;24.10;83.00
58447;DHT22;44240;51.840;7.258;2022-08-21T09:37:54;24.30;82.10
58447;DHT22;44240;51.840;7.258;2022-08-21T09:43:22;24.40;80.30
58447;DHT22;44240;51.840;7.258;2022-08-21T09:46:00;24.40;79.20
58447;DHT22;44240;51.840;7.258;2022-08-21T09:48:26;24.30;80.10
58447;DHT22;44240;51.840;7.258;2022-08-21T09:50:52;24.40;80.30
58447;DHT22;44240;51.840;7.258;2022-08-21T09:53:22;24.50;79.10
58447;DHT22;44240;51.840;7.258;2022-08-21T09:55:53;24.50;79.30
58447;DHT22;44240;51.840;7.258;2022-08-21T09:58:39;24.50;79.40
58447;DHT22;44240;51.840;7.258;2022-08-21T10:01:15;24.50;78.80
58447;DHT22;44240;51.840;7.258;2022-08-21T10:03:41;24.60;79.50
58447;DHT22;44240;51.840;7.258;2022-08-21T10:06:08;24.70;78.20
58447;DHT22;44240;51.840;7.258;2022-08-21T10:08:38;24.70;77.70
58447;DHT22;44240;51.840;7.258;2022-08-21T10:11:09;24.70;78.00
58447;DHT22;44240;51.840;7.258;2022-08-21T10:19:22;25.00;76.70
58447;DHT22;44240;51.840;7.258;2022-08-21T10:22:02;25.00;76.90
58447;DHT22;44240;51.840;7.258;2022-08-21T10:24:33;25.00;76.30
58447;DHT22;44240;51.840;7.258;2022-08-21T10:30:02;25.00;74.90
58447;DHT22;44240;51.840;7.258;2022-08-21T10:35:35;24.90;76.50
58447;DHT22;44240;51.840;7.258;2022-08-21T10:42:02;25.10;73.60
58447;DHT22;44240;51.840;7.258;2022-08-21T10:52:33;24.80;74.80
58447;DHT22;44240;51.840;7.258;2022-08-21T10:55:19;24.90;74.90
58447;DHT22;44240;51.840;7.258;2022-08-21T10:57:56;24.90;76.20
58447;DHT22;44240;51.840;7.258;2022-08-21T11:00:46;24.90;75.70
58447;DHT22;44240;51.840;7.258;2022-08-21T11:03:18;24.90;75.00
58447;DHT22;44240;51.840;7.258;2022-08-21T11:05:55;24.90;75.60
58447;DHT22;44240;51.840;7.258;2022-08-21T11:08:28;24.90;74.90
58447;DHT22;44240;51.840;7.258;2022-08-21T11:11:01;24.90;74.40
58447;DHT22;44240;51.840;7.258;2022-08-21T11:13:38;24.80;75.10
58447;DHT22;44240;51.840;7.258;2022-08-21T11:18:55;24.80;74.90
58447;DHT22;44240;51.840;7.258;2022-08-21T11:21:45;24.80;74.50
58447;DHT22;44240;51.840;7.258;2022-08-21T11:27:35;24.90;75.70
58447;DHT22;44240;51.840;7.258;2022-08-21T11:30:03;24.90;75.10
58447;DHT22;44240;51.840;7.258;2022-08-21T11:35:49;24.90;74.40
58447;DHT22;44240;51.840;7.258;2022-08-21T11:49:32;25.00;73.40
58447;DHT22;44240;51.840;7.258;2022-08-21T11:52:21;25.00;73.60
58447;DHT22;44240;51.840;7.258;2022-08-21T11:55:03;25.00;73.50
58447;DHT22;44240;51.840;7.258;2022-08-21T12:00:22;25.20;73.00
58447;DHT22;44240;51.840;7.258;2022-08-21T12:02:54;25.20;73.10
58447;DHT22;44240;51.840;7.258;2022-08-21T12:05:32;25.30;72.10
58447;DHT22;44240;51.840;7.258;2022-08-21T12:08:10;25.30;72.10
58447;DHT22;44240;51.840;7.258;2022-08-21T12:10:41;25.40;72.60
58447;DHT22;44240;51.840;7.258;2022-08-21T12:13:24;25.40;72.40
58447;DHT22;44240;51.840;7.258;2022-08-21T12:15:50;25.50;72.20
58447;DHT22;44240;51.840;7.258;2022-08-21T12:18:23;25.50;71.90
58447;DHT22;44240;51.840;7.258;2022-08-21T12:21:05;25.60;71.80
58447;DHT22;44240;51.840;7.258;2022-08-21T12:26:47;25.60;70.90
58447;DHT22;44240;51.840;7.258;2022-08-21T12:34:15;25.60;70.10
58447;DHT22;44240;51.840;7.258;2022-08-21T12:36:52;25.70;70.60
58447;DHT22;44240;51.840;7.258;2022-08-21T12:39:24;25.70;70.40
58447;DHT22;44240;51.840;7.258;2022-08-21T12:41:56;25.70;71.10
58447;DHT22;44240;51.840;7.258;2022-08-21T12:44:28;25.80;70.90
58447;DHT22;44240;51.840;7.258;2022-08-21T12:52:35;25.90;69.90
58447;DHT22;44240;51.840;7.258;2022-08-21T12:55:03;25.90;70.90
58447;DHT22;44240;51.840;7.258;2022-08-21T12:57:30;25.90;71.30
58447;DHT22;44240;51.840;7.258;2022-08-21T12:59:58;25.90;70.90
58447;DHT22;44240;51.840;7.258;2022-08-21T13:02:28;25.90;70.70
58447;DHT22;44240;51.840;7.258;2022-08-21T13:04:55;26.00;71.20
58447;DHT22;44240;51.840;7.258;2022-08-21T13:07:26;26.00;71.30
58447;DHT22;44240;51.840;7.258;2022-08-21T13:10:05;26.10;70.20
58447;DHT22;44240;51.840;7.258;2022-08-21T13:12:32;26.10;68.90
58447;DHT22;44240;51.840;7.258;2022-08-21T13:15:02;26.20;69.50
58447;DHT22;44240;51.840;7.258;2022-08-21T13:17:31;26.30;69.20
58447;DHT22;44240;51.840;7.258;2022-08-21T13:20:02;26.40;69.70
58447;DHT22;44240;51.840;7.258;2022-08-21T13:22:28;26.50;69.10
58447;DHT22;44240;51.840;7.258;2022-08-21T13:24:54;26.60;68.20
58447;DHT22;44240;51.840;7.258;2022-08-21T13:27:25;26.60;68.20
58447;DHT22;44240;51.840;7.258;2022-08-21T13:30:08;26.60;68.00
58447;DHT22;44240;51.840;7.258;2022-08-21T13:32:37;26.70;67.70
58447;DHT22;44240;51.840;7.258;2022-08-21T13:35:22;26.70;67.70
58447;DHT22;44240;51.840;7.258;2022-08-21T13:37:49;26.80;68.00
58447;DHT22;44240;51.840;7.258;2022-08-21T13:40:22;27.00;66.90
58447;DHT22;44240;51.840;7.258;2022-08-21T13:42:49;27.10;66.90
58447;DHT22;44240;51.840;7.258;2022-08-21T13:45:27;27.20;66.70
58447;DHT22;44240;51.840;7.258;2022-08-21T13:47:53;27.30;66.60
58447;DHT22;44240;51.840;7.258;2022-08-21T13:50:21;27.50;66.00
58447;DHT22;44240;51.840;7.258;2022-08-21T13:53:01;27.50;66.10
58447;DHT22;44240;51.840;7.258;2022-08-21T13:55:39;27.60;66.30
58447;DHT22;44240;51.840;7.258;2022-08-21T13:58:06;27.70;66.30
58447;DHT22;44240;51.840;7.258;2022-08-21T14:00:37;27.80;65.90
58447;DHT22;44240;51.840;7.258;2022-08-21T14:03:09;27.80;65.10
58447;DHT22;44240;51.840;7.258;2022-08-21T14:05:42;27.80;63.80
58447;DHT22;44240;51.840;7.258;2022-08-21T14:08:13;27.80;63.40
58447;DHT22;44240;51.840;7.258;2022-08-21T14:10:46;27.90;63.40
58447;DHT22;44240;51.840;7.258;2022-08-21T14:13:44;27.90;64.60
58447;DHT22;44240;51.840;7.258;2022-08-21T14:16:23;28.00;64.30
58447;DHT22;44240;51.840;7.258;2022-08-21T14:21:33;28.30;62.60
58447;DHT22;44240;51.840;7.258;2022-08-21T14:24:05;28.30;62.20
58447;DHT22;44240;51.840;7.258;2022-08-21T14:26:31;28.30;62.10
58447;DHT22;44240;51.840;7.258;2022-08-21T14:28:59;28.40;61.70
58447;DHT22;44240;51.840;7.258;2022-08-21T14:31:29;28.40;61.90
58447;DHT22;44240;51.840;7.258;2022-08-21T14:33:55;28.50;61.60
58447;DHT22;44240;51.840;7.258;2022-08-21T14:36:21;28.40;60.90
58447;DHT22;44240;51.840;7.258;2022-08-21T14:38:47;28.40;61.20
58447;DHT22;44240;51.840;7.258;2022-08-21T14:41:23;28.50;60.70
58447;DHT22;44240;51.840;7.258;2022-08-21T14:43:50;28.60;59.90
58447;DHT22;44240;51.840;7.258;2022-08-21T14:46:27;28.70;58.00
58447;DHT22;44240;51.840;7.258;2022-08-21T14:48:53;28.80;57.90
58447;DHT22;44240;51.840;7.258;2022-08-21T14:51:19;28.90;59.30
58447;DHT22;44240;51.840;7.258;2022-08-21T14:53:46;29.00;59.50
58447;DHT22;44240;51.840;7.258;2022-08-21T14:56:12;29.10;59.20
58447;DHT22;44240;51.840;7.258;2022-08-21T14:58:40;29.20;60.00
58447;DHT22;44240;51.840;7.258;2022-08-21T15:01:08;29.10;58.30
58447;DHT22;44240;51.840;7.258;2022-08-21T15:03:34;29.00;57.50
58447;DHT22;44240;51.840;7.258;2022-08-21T15:06:00;28.90;57.50
58447;DHT22;44240;51.840;7.258;2022-08-21T15:08:26;28.90;57.10
58447;DHT22;44240;51.840;7.258;2022-08-21T15:10:52;28.90;57.00
58447;DHT22;44240;51.840;7.258;2022-08-21T15:13:19;28.90;56.90
58447;DHT22;44240;51.840;7.258;2022-08-21T15:15:47;28.90;56.90
58447;DHT22;44240;51.840;7.258;2022-08-21T15:18:13;28.80;56.50
58447;DHT22;44240;51.840;7.258;2022-08-21T15:20:39;28.70;57.60
58447;DHT22;44240;51.840;7.258;2022-08-21T15:23:06;28.70;56.20
58447;DHT22;44240;51.840;7.258;2022-08-21T15:25:32;28.60;56.80
58447;DHT22;44240;51.840;7.258;2022-08-21T15:27:59;28.50;57.40
58447;DHT22;44240;51.840;7.258;2022-08-21T15:30:25;28.50;58.20
58447;DHT22;44240;51.840;7.258;2022-08-21T15:32:50;28.40;58.30
58447;DHT22;44240;51.840;7.258;2022-08-21T15:35:16;28.50;58.70
58447;DHT22;44240;51.840;7.258;2022-08-21T15:37:42;28.60;57.50
58447;DHT22;44240;51.840;7.258;2022-08-21T15:40:08;28.60;58.10
58447;DHT22;44240;51.840;7.258;2022-08-21T15:42:34;28.60;58.00
58447;DHT22;44240;51.840;7.258;2022-08-21T15:45:00;28.50;57.90
58447;DHT22;44240;51.840;7.258;2022-08-21T15:47:30;28.40;57.10
58447;DHT22;44240;51.840;7.258;2022-08-21T15:49:56;28.30;58.10
58447;DHT22;44240;51.840;7.258;2022-08-21T15:52:22;28.40;57.90
58447;DHT22;44240;51.840;7.258;2022-08-21T15:54:48;28.40;58.10
58447;DHT22;44240;51.840;7.258;2022-08-21T15:57:16;28.40;58.40
58447;DHT22;44240;51.840;7.258;2022-08-21T15:59:45;28.40;58.20
58447;DHT22;44240;51.840;7.258;2022-08-21T16:02:18;28.50;58.10
58447;DHT22;44240;51.840;7.258;2022-08-21T16:04:44;28.50;57.50
58447;DHT22;44240;51.840;7.258;2022-08-21T16:07:10;28.40;57.50
58447;DHT22;44240;51.840;7.258;2022-08-21T16:09:36;28.30;57.50
58447;DHT22;44240;51.840;7.258;2022-08-21T16:12:02;28.30;57.50
58447;DHT22;44240;51.840;7.258;2022-08-21T16:14:29;28.10;54.80
58447;DHT22;44240;51.840;7.258;2022-08-21T16:16:56;27.90;54.70
58447;DHT22;44240;51.840;7.258;2022-08-21T16:19:22;27.70;55.00
58447;DHT22;44240;51.840;7.258;2022-08-21T16:21:47;27.60;55.50
58447;DHT22;44240;51.840;7.258;2022-08-21T16:24:13;27.50;55.60
58447;DHT22;44240;51.840;7.258;2022-08-21T16:26:38;27.50;56.90
58447;DHT22;44240;51.840;7.258;2022-08-21T16:29:05;27.40;56.40
58447;DHT22;44240;51.840;7.258;2022-08-21T16:31:32;27.30;55.90
58447;DHT22;44240;51.840;7.258;2022-08-21T16:33:59;27.20;55.20
58447;DHT22;44240;51.840;7.258;2022-08-21T16:36:25;27.10;55.30
58447;DHT22;44240;51.840;7.258;2022-08-21T16:38:52;27.10;56.20
58447;DHT22;44240;51.840;7.258;2022-08-21T16:41:20;27.00;56.20
58447;DHT22;44240;51.840;7.258;2022-08-21T16:43:48;27.00;59.60
58447;DHT22;44240;51.840;7.258;2022-08-21T16:46:15;27.00;62.40
58447;DHT22;44240;51.840;7.258;2022-08-21T16:48:41;27.00;62.50
58447;DHT22;44240;51.840;7.258;2022-08-21T16:51:13;26.90;62.10
58447;DHT22;44240;51.840;7.258;2022-08-21T16:53:40;26.90;62.70
58447;DHT22;44240;51.840;7.258;2022-08-21T16:56:06;26.80;63.00
58447;DHT22;44240;51.840;7.258;2022-08-21T16:58:35;26.80;63.10